Time;durP1;ratioP1;P1;durP2;ratioP2;P2;SDS_P1;SDS_P2;PMS_P1;PMS_P2;Temp;Humidity;BMP_temperature;BMP_pressure;BME280_temperature;BME280_humidity;BME280_pressure;Samples;Min_cycle;Max_cycle;Signal;HPM_P1;HPM_P2
2021/12/02 00:01:56;;;;;;;2.53;2.33;;;;;;;4.97;74.20;97590.78;4987051;28;20240;-63
2021/12/02 00:04:27;;;;;;;4.40;2.30;;;;;;;5.18;70.88;97584.69;4988159;28;20236;-61
2021/12/02 00:06:54;;;;;;;3.87;2.70;;;;;;;5.28;71.48;97595.75;4986886;28;20265;-61
2021/12/02 00:09:21;;;;;;;4.83;2.70;;;;;;;5.89;70.34;97575.03;4980774;28;20226;-62
2021/12/02 00:12:07;;;;;;;2.70;2.50;;;;;;;4.76;70.78;97593.41;4980648;28;20851;-61
2021/12/02 00:14:46;;;;;;;4.83;2.53;;;;;;;6.00;69.21;97580.59;4991485;28;20227;-62
2021/12/02 00:17:27;;;;;;;3.20;2.90;;;;;;;5.36;70.98;97591.31;4989621;28;20596;-61
2021/12/02 00:23:28;;;;;;;4.27;2.70;;;;;;;5.76;69.94;97578.41;4967660;28;20237;-61
2021/12/02 00:25:59;;;;;;;4.80;3.00;;;;;;;5.49;68.30;97572.94;4960573;28;20588;-62
2021/12/02 00:28:28;;;;;;;4.30;3.70;;;;;;;6.07;69.22;97564.75;4954569;28;20229;-62
2021/12/02 00:30:57;;;;;;;3.47;2.90;;;;;;;6.69;66.88;97556.81;4969687;28;20228;-62
2021/12/02 00:33:33;;;;;;;2.70;2.50;;;;;;;5.53;69.14;97576.00;4989047;28;20236;-62
2021/12/02 00:36:04;;;;;;;5.37;3.20;;;;;;;6.85;67.30;97558.28;4988998;28;20630;-61
2021/12/02 00:38:31;;;;;;;4.77;2.77;;;;;;;6.93;66.18;97558.09;4987859;28;20337;-63
2021/12/02 00:40:59;;;;;;;6.83;2.80;;;;;;;6.66;67.13;97566.00;4988766;28;20251;-62
2021/12/02 00:43:27;;;;;;;3.23;2.93;;;;;;;6.90;65.78;97559.31;4984276;28;20234;-63
2021/12/02 00:46:16;;;;;;;3.00;2.57;;;;;;;6.74;65.79;97565.81;4978540;28;20246;-60
2021/12/02 00:48:45;;;;;;;4.73;2.73;;;;;;;6.57;65.31;97573.28;4986115;28;20226;-61
2021/12/02 00:51:27;;;;;;;3.67;2.80;;;;;;;6.66;65.34;97560.69;4974171;28;20778;-62
2021/12/02 00:54:02;;;;;;;3.87;2.50;;;;;;;6.82;65.26;97569.28;4988937;28;20238;-61
2021/12/02 00:56:36;;;;;;;2.70;2.37;;;;;;;6.49;66.73;97588.56;4982662;28;20230;-62
2021/12/02 00:59:15;;;;;;;3.70;2.87;;;;;;;6.94;65.41;97575.63;4989385;28;20603;-63
2021/12/02 01:01:43;;;;;;;2.67;2.47;;;;;;;6.94;65.27;97575.63;4983912;28;20230;-60
2021/12/02 01:04:29;;;;;;;3.57;2.87;;;;;;;7.04;64.95;97573.38;4982461;28;20236;-62
2021/12/02 01:06:57;;;;;;;4.37;2.73;;;;;;;7.04;65.72;97580.53;4989139;28;20226;-62
2021/12/02 01:09:26;;;;;;;3.23;2.90;;;;;;;7.46;63.89;97560.75;4986061;28;20248;-63
2021/12/02 01:12:12;;;;;;;5.43;3.03;;;;;;;7.17;64.48;97574.44;4989098;28;20234;-63
2021/12/02 01:14:46;;;;;;;3.43;3.13;;;;;;;7.33;63.88;97568.72;4989400;28;20226;-61
2021/12/02 01:17:26;;;;;;;3.60;2.87;;;;;;;7.20;64.72;97582.81;4989191;28;20225;-62
2021/12/02 01:19:53;;;;;;;4.33;3.07;;;;;;;7.77;62.74;97572.56;4966416;28;20240;-61
2021/12/02 01:22:33;;;;;;;4.73;3.30;;;;;;;6.65;64.92;97590.03;4985836;28;20908;-62
2021/12/02 01:25:21;;;;;;;4.30;2.80;;;;;;;3.78;74.44;97646.38;4972828;28;20237;-63
2021/12/02 01:28:02;;;;;;;4.37;3.00;;;;;;;4.36;72.79;97630.72;4945994;28;20558;-62
2021/12/02 01:30:31;;;;;;;2.60;2.40;;;;;;;4.81;71.02;97620.06;4964339;28;20244;-62
2021/12/02 01:33:06;;;;;;;3.67;2.60;;;;;;;6.00;69.56;97601.75;4984005;28;20236;-62
2021/12/02 01:35:38;;;;;;;4.00;2.50;;;;;;;6.27;68.92;97595.78;4988270;28;20226;-63
2021/12/02 01:38:05;;;;;;;2.67;2.27;;;;;;;5.06;71.43;97604.72;4986398;28;20687;-63
2021/12/02 01:40:32;;;;;;;6.67;3.33;;;;;;;5.20;69.21;97590.59;4988033;28;20603;-61
2021/12/02 01:42:59;;;;;;;3.10;2.33;;;;;;;4.33;75.30;97624.00;4988142;28;20722;-61
2021/12/02 01:45:29;;;;;;;3.30;2.30;;;;;;;5.70;70.75;97582.66;4988889;28;20222;-61
2021/12/02 01:47:58;;;;;;;3.53;2.40;;;;;;;5.26;69.80;97596.94;4986778;28;20245;-59
2021/12/02 01:50:34;;;;;;;4.40;2.83;;;;;;;4.89;71.03;97610.22;4976166;28;20233;-62
2021/12/02 01:53:14;;;;;;;3.93;2.87;;;;;;;4.50;73.68;97621.13;4988656;28;20718;-62
2021/12/02 01:55:43;;;;;;;2.90;2.60;;;;;;;4.92;71.89;97609.03;4987400;28;20230;-63
2021/12/02 01:58:15;;;;;;;2.90;2.60;;;;;;;4.78;73.00;97608.03;4980065;28;20228;-62
2021/12/02 02:00:59;;;;;;;2.50;2.30;;;;;;;4.51;71.94;97605.09;4974938;28;21508;-61
2021/12/02 02:03:36;;;;;;;4.60;2.70;;;;;;;4.46;75.09;97615.41;4987093;28;20233;-62
2021/12/02 02:06:05;;;;;;;4.43;3.00;;;;;;;4.20;72.40;97602.72;4993701;28;20225;-62
2021/12/02 02:08:54;;;;;;;5.23;2.50;;;;;;;4.41;74.40;97616.97;4989652;28;20229;-62
2021/12/02 02:11:28;;;;;;;2.80;2.60;;;;;;;4.86;72.23;97596.56;4971887;28;20228;-62
2021/12/02 02:14:05;;;;;;;5.17;2.37;;;;;;;3.87;73.80;97610.97;4966658;28;21522;-61
2021/12/02 02:16:49;;;;;;;3.27;2.53;;;;;;;4.26;73.13;97595.88;4979427;28;20655;-61
2021/12/02 02:19:16;;;;;;;6.70;2.47;;;;;;;3.82;73.63;97594.06;4971897;28;20223;-61
2021/12/02 02:21:43;;;;;;;3.93;2.33;;;;;;;4.00;74.42;97605.09;4978017;28;20218;-60
2021/12/02 02:24:15;;;;;;;3.70;2.80;;;;;;;5.23;70.81;97570.91;4972730;28;20229;-61
2021/12/02 02:26:43;;;;;;;3.10;2.80;;;;;;;4.48;71.82;97587.00;4977198;28;20957;-65
2021/12/02 02:29:14;;;;;;;3.83;2.70;;;;;;;5.71;69.29;97554.34;4983422;28;20267;-61
2021/12/02 02:32:00;;;;;;;3.47;2.90;;;;;;;4.69;71.62;97585.41;4981464;28;20237;-62
2021/12/02 02:34:28;;;;;;;2.83;2.43;;;;;;;5.44;69.57;97565.56;4986360;28;20230;-61
2021/12/02 02:36:56;;;;;;;3.73;2.63;;;;;;;4.32;71.91;97592.50;4986272;28;20222;-63
2021/12/02 02:39:28;;;;;;;3.17;2.20;;;;;;;4.09;71.12;97585.50;4986824;28;20234;-62
2021/12/02 02:42:00;;;;;;;4.47;2.60;;;;;;;5.12;69.59;97574.88;4987044;28;20322;-61
2021/12/02 02:44:37;;;;;;;3.67;2.90;;;;;;;4.75;69.70;97583.84;4986478;28;20561;-61
2021/12/02 02:47:12;;;;;;;3.53;2.50;;;;;;;5.85;67.85;97566.66;4987023;28;20235;-62
2021/12/02 02:49:42;;;;;;;3.20;2.20;;;;;;;6.12;66.38;97564.13;4979271;28;20233;-59
2021/12/02 02:52:09;;;;;;;3.07;2.73;;;;;;;5.24;66.86;97569.88;4987493;28;20655;-61
2021/12/02 02:54:36;;;;;;;2.30;2.20;;;;;;;4.74;70.20;97598.88;4987345;28;20229;-62
2021/12/02 02:57:09;;;;;;;4.50;2.50;;;;;;;4.47;70.24;97597.78;4976989;28;20240;-61
2021/12/02 03:02:58;;;;;;;4.33;2.90;;;;;;;4.40;73.24;97610.03;4987189;28;20236;-63
2021/12/02 03:07:54;;;;;;;2.37;2.17;;;;;;;3.73;74.17;97609.16;4981876;28;20587;-62
2021/12/02 03:13:21;;;;;;;3.70;2.30;;;;;;;3.41;75.48;97606.66;4968025;28;20238;-61
2021/12/02 03:18:38;;;;;;;2.10;2.00;;;;;;;2.43;78.49;97602.84;4983823;28;20235;-62
2021/12/02 03:21:22;;;;;;;2.00;1.90;;;;;;;2.52;80.01;97602.81;4974444;28;20237;-62
2021/12/02 03:23:52;;;;;;;2.20;2.10;;;;;;;2.84;78.00;97594.72;4985993;28;20217;-59
2021/12/02 03:26:27;;;;;;;2.70;2.50;;;;;;;3.22;76.95;97580.78;4978980;28;20231;-61
2021/12/02 03:28:59;;;;;;;4.47;2.63;;;;;;;3.15;76.17;97596.47;4985609;28;20719;-63
2021/12/02 03:31:28;;;;;;;3.23;2.10;;;;;;;3.20;76.14;97577.47;4985885;28;20740;-61
2021/12/02 03:34:13;;;;;;;2.03;1.93;;;;;;;2.14;79.13;97595.59;4987033;28;21323;-61
2021/12/02 03:36:40;;;;;;;2.80;2.30;;;;;;;2.51;76.93;97594.09;4984935;28;20226;-60
2021/12/02 03:39:12;;;;;;;3.10;2.30;;;;;;;4.99;69.88;97548.31;4985509;28;20234;-62
2021/12/02 03:41:41;;;;;;;2.90;2.60;;;;;;;4.60;70.42;97558.28;4983910;28;20240;-61
2021/12/02 03:44:13;;;;;;;2.00;1.90;;;;;;;5.98;66.35;97524.38;4983102;28;20230;-62
2021/12/02 03:46:46;;;;;;;4.63;2.47;;;;;;;5.78;66.85;97534.03;4989753;28;20222;-62
2021/12/02 03:49:13;;;;;;;3.63;2.63;;;;;;;4.53;71.41;97558.25;4978853;28;20233;-62
2021/12/02 03:51:48;;;;;;;2.40;2.10;;;;;;;3.60;73.07;97583.41;4974553;28;20224;-61
2021/12/02 03:54:15;;;;;;;7.23;3.30;;;;;;;3.94;72.79;97585.50;4990047;28;20232;-62
2021/12/02 03:56:51;;;;;;;3.37;2.23;;;;;;;5.54;67.36;97536.13;4970027;28;20225;-63
2021/12/02 03:59:29;;;;;;;3.00;2.50;;;;;;;3.86;70.79;97576.88;4990095;28;20837;-60
2021/12/02 04:02:03;;;;;;;3.17;2.70;;;;;;;4.63;70.32;97563.19;4990571;28;21630;-61
2021/12/02 04:04:30;;;;;;;2.80;2.60;;;;;;;4.51;69.78;97569.97;4989778;28;20219;-62
2021/12/02 04:06:57;;;;;;;2.53;1.97;;;;;;;3.38;71.71;97582.47;4973655;28;20228;-59
2021/12/02 04:09:45;;;;;;;6.77;2.77;;;;;;;2.94;74.99;97591.03;4985167;28;20292;-61
2021/12/02 04:15:28;;;;;;;3.00;2.77;;;;;;;3.09;76.33;97593.72;4940339;28;20231;-61
2021/12/02 04:18:03;;;;;;;4.93;2.80;;;;;;;3.21;74.14;97593.13;4947514;28;20390;-61
2021/12/02 04:20:36;;;;;;;2.23;2.10;;;;;;;3.47;75.16;97583.22;4961589;28;20234;-62
2021/12/02 04:23:06;;;;;;;3.40;2.30;;;;;;;3.14;76.03;97600.09;4986155;28;20240;-61
2021/12/02 04:25:39;;;;;;;3.57;2.70;;;;;;;2.91;75.79;97601.91;4989365;28;20230;-60
2021/12/02 04:28:09;;;;;;;3.80;2.30;;;;;;;3.67;74.82;97586.97;4990210;28;20237;-61
2021/12/02 04:30:36;;;;;;;2.97;2.23;;;;;;;3.14;73.62;97592.19;4990376;28;20226;-60
2021/12/02 04:33:04;;;;;;;6.47;2.60;;;;;;;4.03;73.39;97570.44;4990366;28;20256;-61
2021/12/02 04:35:43;;;;;;;2.40;2.20;;;;;;;2.87;76.50;97604.09;4988960;28;20308;-66
2021/12/02 04:38:20;;;;;;;4.07;2.57;;;;;;;3.24;73.85;97584.88;4988738;28;20233;-64
2021/12/02 04:40:47;;;;;;;2.60;1.97;;;;;;;3.01;75.13;97603.31;4986892;28;20222;-61
2021/12/02 04:43:34;;;;;;;2.10;2.00;;;;;;;2.48;77.56;97611.06;4982156;28;20299;-61
2021/12/02 04:46:01;;;;;;;3.60;2.30;;;;;;;2.97;76.06;97598.59;5000463;28;20236;-61
2021/12/02 04:48:38;;;;;;;6.87;2.33;;;;;;;3.06;76.18;97594.88;4984661;28;20727;-63
2021/12/02 04:51:08;;;;;;;3.90;2.63;;;;;;;4.11;72.98;97559.78;4973607;28;20229;-61
2021/12/02 04:53:38;;;;;;;2.10;1.87;;;;;;;4.97;69.94;97537.13;4964872;28;20241;-62
2021/12/02 04:56:11;;;;;;;2.70;2.50;;;;;;;5.61;67.89;97536.19;4985697;28;20231;-62
2021/12/02 04:58:38;;;;;;;5.00;2.77;;;;;;;5.45;68.46;97547.88;4988058;28;20251;-63
2021/12/02 05:02:43;;;;;;;5.00;2.40;;;;;;;2.59;79.24;97585.34;5100157;27;20417;-60
2021/12/02 05:05:24;;;;;;;3.00;2.80;;;;;;;1.92;80.71;97595.34;5082069;28;20233;-63
2021/12/02 05:07:53;;;;;;;3.57;2.70;;;;;;;1.99;78.51;97592.00;5064825;28;20219;-62
2021/12/02 05:10:22;;;;;;;4.00;2.83;;;;;;;3.31;75.99;97563.88;5056068;28;20749;-62
2021/12/02 05:13:03;;;;;;;3.33;3.03;;;;;;;2.60;74.88;97572.00;5052187;28;20227;-62
2021/12/02 05:15:30;;;;;;;2.37;2.17;;;;;;;2.22;79.12;97598.16;5060640;28;20227;-60
2021/12/02 05:18:06;;;;;;;3.97;2.47;;;;;;;3.79;73.62;97545.97;5082687;28;21781;-58
2021/12/02 05:20:36;;;;;;;5.07;2.67;;;;;;;3.37;74.52;97570.28;5081098;28;20268;-62
2021/12/02 05:23:06;;;;;;;4.43;2.67;;;;;;;3.97;72.82;97550.06;5082463;28;20256;-61
2021/12/02 05:25:44;;;;;;;4.40;3.03;;;;;;;3.74;74.26;97550.13;5075937;28;20234;-60
2021/12/02 05:28:15;;;;;;;6.47;2.90;;;;;;;4.68;71.25;97518.56;5055372;28;20226;-60
2021/12/02 05:30:42;;;;;;;3.63;2.40;;;;;;;3.70;74.76;97554.97;5082064;28;20241;-60
2021/12/02 05:33:18;;;;;;;3.27;2.97;;;;;;;3.30;74.70;97564.06;5083661;28;20563;-62
2021/12/02 05:35:45;;;;;;;5.50;2.40;;;;;;;4.36;71.48;97530.41;5083139;28;20215;-60
2021/12/02 05:38:26;;;;;;;4.40;2.60;;;;;;;4.48;71.37;97534.19;5082672;28;20236;-61
2021/12/02 05:40:54;;;;;;;4.77;2.73;;;;;;;3.39;74.05;97555.13;5084048;28;20237;-61
2021/12/02 05:43:41;;;;;;;5.67;2.30;;;;;;;2.43;76.28;97570.47;5073309;28;20262;-59
2021/12/02 05:46:08;;;;;;;3.13;2.27;;;;;;;2.37;76.40;97563.25;5079404;28;20227;-59
2021/12/02 05:48:35;;;;;;;3.93;2.37;;;;;;;2.79;79.00;97564.66;5081499;28;20233;-63
2021/12/02 05:51:15;;;;;;;2.60;2.13;;;;;;;3.23;77.06;97546.31;5079108;28;20861;-61
2021/12/02 05:53:48;;;;;;;3.13;2.43;;;;;;;3.38;73.56;97537.66;5055936;28;20241;-60
2021/12/02 05:56:15;;;;;;;4.93;2.47;;;;;;;4.00;73.33;97528.59;5082735;28;20590;-59
2021/12/02 05:58:45;;;;;;;3.13;2.40;;;;;;;4.18;72.57;97520.28;5082347;28;20694;-60
2021/12/02 06:01:12;;;;;;;4.13;2.40;;;;;;;4.04;72.79;97535.13;5082582;28;20227;-60
2021/12/02 06:03:40;;;;;;;3.67;2.60;;;;;;;4.87;70.45;97506.56;5081192;28;20241;-64
2021/12/02 06:06:07;;;;;;;4.47;2.83;;;;;;;4.55;70.95;97526.34;5079316;28;20227;-67
2021/12/02 06:08:53;;;;;;;5.03;2.43;;;;;;;4.16;71.22;97528.38;5068599;28;20273;-65
2021/12/02 06:11:38;;;;;;;4.57;2.80;;;;;;;3.66;73.37;97535.25;5059456;28;20258;-67
2021/12/02 06:14:25;;;;;;;2.90;2.70;;;;;;;4.16;72.55;97523.09;5038057;28;20227;-64
2021/12/02 06:17:13;;;;;;;3.17;2.80;;;;;;;3.79;73.09;97524.03;5037696;28;20230;-66
2021/12/02 06:19:59;;;;;;;6.30;3.10;;;;;;;4.26;71.76;97514.06;5054820;28;20255;-66
2021/12/02 06:22:47;;;;;;;4.43;3.27;;;;;;;4.08;72.07;97520.56;5033407;28;20236;-68
2021/12/02 06:28:21;;;;;;;2.50;2.30;;;;;;;4.39;70.75;97516.03;5059146;28;20725;-66
2021/12/02 06:31:08;;;;;;;5.97;3.40;;;;;;;4.52;70.27;97509.06;5092054;28;20229;-63
2021/12/02 06:33:55;;;;;;;3.67;3.00;;;;;;;4.41;70.61;97525.38;5100942;28;20702;-64
2021/12/02 06:36:42;;;;;;;4.60;2.63;;;;;;;4.39;70.81;97537.16;5095251;28;20229;-62
2021/12/02 06:39:29;;;;;;;7.07;3.87;;;;;;;4.84;69.72;97532.53;5095843;27;20234;-64
2021/12/02 06:42:16;;;;;;;10.27;7.00;;;;;;;5.22;68.71;97524.34;5098679;28;20226;-64
2021/12/02 06:45:05;;;;;;;6.63;4.43;;;;;;;4.95;69.41;97526.75;5099255;28;20225;-61
2021/12/02 06:47:54;;;;;;;5.67;4.00;;;;;;;5.13;68.91;97520.22;5073965;28;20616;-64
2021/12/02 06:50:43;;;;;;;7.00;4.60;;;;;;;4.84;69.07;97522.78;5091671;27;20275;-63
2021/12/02 06:53:29;;;;;;;5.17;4.63;;;;;;;5.06;69.08;97514.88;5099633;28;20776;-64
2021/12/02 06:56:17;;;;;;;5.10;3.20;;;;;;;4.97;69.47;97522.09;5069676;28;20229;-61
2021/12/02 06:59:04;;;;;;;5.00;3.20;;;;;;;3.63;71.55;97538.25;5100397;28;20657;-64
2021/12/02 07:01:51;;;;;;;4.90;3.10;;;;;;;3.06;73.61;97545.66;5099940;28;20230;-64
2021/12/02 07:04:38;;;;;;;3.53;3.23;;;;;;;4.21;73.74;97538.34;5080170;28;20231;-64
2021/12/02 07:07:30;;;;;;;3.97;3.20;;;;;;;4.66;71.66;97531.13;5080474;28;20261;-64
2021/12/02 07:10:22;;;;;;;3.30;3.03;;;;;;;4.97;69.46;97518.63;5095194;28;20780;-62
2021/12/02 07:13:09;;;;;;;3.10;2.80;;;;;;;4.79;69.91;97530.47;5082466;28;20238;-63
2021/12/02 07:15:59;;;;;;;3.43;3.00;;;;;;;4.96;69.19;97519.66;5079392;28;20238;-66
2021/12/02 07:18:53;;;;;;;3.90;3.03;;;;;;;5.26;68.70;97523.75;5078302;28;20227;-68
2021/12/02 07:21:20;;;;;;;3.33;3.03;;;;;;;4.96;68.79;97523.13;5063397;28;20245;-67
2021/12/02 07:23:47;;;;;;;4.77;3.50;;;;;;;4.57;70.34;97552.56;5079515;28;20222;-68
2021/12/02 07:26:14;;;;;;;4.60;3.37;;;;;;;4.72;69.89;97542.75;5092640;28;20234;-65
2021/12/02 07:28:44;;;;;;;6.53;3.53;;;;;;;3.26;73.06;97575.97;5091790;28;20600;-68
2021/12/02 07:31:12;;;;;;;4.87;3.37;;;;;;;4.88;71.23;97550.44;5109855;28;20218;-69
2021/12/02 07:33:42;;;;;;;4.07;3.63;;;;;;;3.90;72.54;97568.44;5108419;28;20244;-68
2021/12/02 07:36:09;;;;;;;5.27;3.53;;;;;;;2.84;77.76;97601.81;5107538;28;20226;-68
2021/12/02 07:38:38;;;;;;;5.90;3.70;;;;;;;3.08;77.19;97592.88;5107829;28;20240;-69
2021/12/02 07:41:05;;;;;;;4.23;3.33;;;;;;;2.91;79.20;97610.63;5109685;28;20225;-68
2021/12/02 07:43:35;;;;;;;4.20;3.50;;;;;;;3.59;76.54;97579.13;5107659;28;20225;-67
2021/12/02 07:46:04;;;;;;;3.30;2.60;;;;;;;2.06;81.72;97617.47;5106869;28;20873;-63
2021/12/02 07:48:31;;;;;;;3.20;2.87;;;;;;;4.45;73.67;97550.44;5074269;28;20237;-63
2021/12/02 07:51:01;;;;;;;8.17;3.27;;;;;;;3.94;74.86;97579.44;5095666;28;20576;-62
2021/12/02 07:53:28;;;;;;;7.57;3.33;;;;;;;4.57;72.28;97558.69;5101697;28;20227;-62
2021/12/02 07:55:57;;;;;;;7.17;3.70;;;;;;;5.14;70.27;97546.41;5090087;28;20223;-68
2021/12/02 07:58:24;;;;;;;6.10;3.17;;;;;;;4.87;70.85;97567.31;5102601;28;20229;-65
2021/12/02 08:00:57;;;;;;;4.13;3.37;;;;;;;4.50;71.97;97584.16;5096138;28;20224;-67
2021/12/02 08:03:26;;;;;;;5.47;3.70;;;;;;;4.85;71.36;97585.16;5095459;28;20436;-65
2021/12/02 08:05:53;;;;;;;6.40;4.43;;;;;;;4.91;71.42;97599.47;5108375;28;20236;-65
2021/12/02 08:08:20;;;;;;;5.67;4.10;;;;;;;4.35;72.40;97621.19;5095314;28;20220;-64
2021/12/02 08:10:52;;;;;;;7.30;4.00;;;;;;;4.05;71.91;97626.47;5084976;28;20229;-65
2021/12/02 08:13:20;;;;;;;4.53;3.40;;;;;;;3.50;73.72;97641.66;5108442;28;20226;-67
2021/12/02 08:15:47;;;;;;;5.23;4.00;;;;;;;4.19;72.06;97624.81;5097599;28;20638;-64
2021/12/02 08:18:14;;;;;;;3.53;3.23;;;;;;;4.45;69.62;97618.22;5082230;28;20260;-63
2021/12/02 08:20:41;;;;;;;2.60;2.40;;;;;;;4.27;69.43;97622.09;5088342;28;22306;-64
2021/12/02 08:23:08;;;;;;;2.87;2.67;;;;;;;3.28;72.02;97659.09;5088388;28;20702;-63
2021/12/02 08:25:35;;;;;;;2.30;2.10;;;;;;;3.88;70.25;97639.00;5101246;28;20257;-63
2021/12/02 08:28:03;;;;;;;2.40;2.20;;;;;;;4.20;70.40;97633.53;5095061;28;20231;-61
2021/12/02 08:30:33;;;;;;;3.00;2.80;;;;;;;4.39;69.75;97624.28;5104599;28;20222;-64
2021/12/02 08:33:01;;;;;;;3.57;3.30;;;;;;;4.68;68.39;97608.34;5103031;28;20228;-64
2021/12/02 08:35:29;;;;;;;5.13;4.37;;;;;;;4.71;68.72;97607.16;5088476;28;20706;-63
2021/12/02 08:38:09;;;;;;;4.53;3.27;;;;;;;4.58;69.29;97609.66;5091059;28;20273;-63
2021/12/02 08:40:38;;;;;;;4.20;3.80;;;;;;;4.76;67.82;97604.78;5106977;28;20232;-63
2021/12/02 08:43:08;;;;;;;4.70;3.33;;;;;;;4.31;69.38;97619.91;5090828;28;20625;-62
2021/12/02 08:45:37;;;;;;;6.53;3.97;;;;;;;5.40;67.60;97611.09;5106340;28;20244;-62
2021/12/02 08:48:06;;;;;;;6.33;3.77;;;;;;;4.87;68.88;97628.06;5106130;28;20228;-61
2021/12/02 08:50:35;;;;;;;8.80;4.83;;;;;;;5.02;68.01;97621.94;5090678;28;20228;-64
2021/12/02 08:53:06;;;;;;;8.03;4.50;;;;;;;5.17;67.82;97627.16;5088292;28;20731;-62
2021/12/02 08:55:33;;;;;;;4.07;2.63;;;;;;;4.78;68.62;97639.75;5096661;28;20241;-64
2021/12/02 08:58:01;;;;;;;3.73;2.50;;;;;;;4.91;67.55;97629.34;5099898;28;20715;-62
2021/12/02 09:00:33;;;;;;;3.37;3.07;;;;;;;4.57;68.93;97642.34;5102992;28;20222;-63
2021/12/02 09:03:03;;;;;;;4.30;2.90;;;;;;;4.63;69.63;97652.16;5100423;28;20222;-62
2021/12/02 09:05:31;;;;;;;3.63;3.00;;;;;;;4.62;69.32;97651.34;5097034;28;20225;-64
2021/12/02 09:07:58;;;;;;;2.50;2.30;;;;;;;4.47;69.72;97651.38;5096544;28;20219;-62
2021/12/02 09:10:26;;;;;;;4.63;3.17;;;;;;;4.62;68.60;97653.16;5104941;28;20237;-64
2021/12/02 09:12:54;;;;;;;4.20;3.67;;;;;;;4.49;68.84;97654.66;5107008;28;20226;-64
2021/12/02 09:15:21;;;;;;;7.73;5.23;;;;;;;5.77;65.28;97631.13;5106505;28;20221;-64
2021/12/02 09:17:52;;;;;;;5.03;4.07;;;;;;;5.77;64.71;97627.66;5080681;28;20682;-63
2021/12/02 09:20:20;;;;;;;8.93;6.03;;;;;;;6.10;64.43;97621.75;5097226;28;20222;-64
2021/12/02 09:22:47;;;;;;;10.00;5.80;;;;;;;5.45;65.49;97638.59;5095124;28;20218;-65
2021/12/02 09:25:16;;;;;;;5.87;4.30;;;;;;;5.63;66.01;97650.53;5105452;28;20242;-62
2021/12/02 09:27:45;;;;;;;4.97;3.43;;;;;;;5.89;65.52;97657.88;5090157;28;20225;-62
2021/12/02 09:30:13;;;;;;;4.17;3.37;;;;;;;6.02;64.98;97652.66;5102263;28;20732;-62
2021/12/02 09:32:40;;;;;;;5.77;3.23;;;;;;;6.18;64.32;97659.47;5106422;28;20226;-62
2021/12/02 09:35:09;;;;;;;3.43;3.13;;;;;;;5.86;64.45;97655.59;5093542;28;20222;-62
2021/12/02 09:37:37;;;;;;;4.43;3.70;;;;;;;5.30;65.85;97671.41;5086491;28;20237;-62
2021/12/02 09:40:08;;;;;;;3.53;3.23;;;;;;;5.79;65.69;97668.78;5106505;28;20229;-62
2021/12/02 09:42:35;;;;;;;4.43;2.93;;;;;;;6.12;64.50;97668.19;5106613;28;20226;-62
2021/12/02 09:45:04;;;;;;;3.40;3.10;;;;;;;5.79;64.89;97662.69;5106875;28;20222;-62
2021/12/02 09:47:34;;;;;;;3.63;3.30;;;;;;;5.53;65.93;97679.97;5106640;28;20222;-62
2021/12/02 09:50:06;;;;;;;5.10;3.23;;;;;;;5.80;65.13;97680.16;5109803;28;20603;-62
2021/12/02 09:52:42;;;;;;;3.53;3.23;;;;;;;5.08;67.34;97688.06;5104008;28;20230;-62
2021/12/02 09:55:53;;;;;;;3.50;3.20;;;;;;;5.34;65.87;97675.31;5109728;28;20217;-65
2021/12/02 09:58:10;;;;;;;3.80;3.50;;;;;;;5.81;64.99;97660.66;5093929;28;20825;-62
2021/12/02 10:00:43;;;;;;;2.67;2.47;;;;;;;5.00;66.51;97688.19;5109930;28;20226;-63
2021/12/02 10:06:17;;;;;;;4.13;3.67;;;;;;;5.04;68.54;97702.69;5084651;28;21652;-62
2021/12/02 10:14:25;;;;;;;3.30;2.83;;;;;;;5.80;65.31;97682.81;5110045;28;20599;-62
2021/12/02 10:23:23;;;;;;;2.90;2.70;;;;;;;6.10;62.97;97672.84;5073085;28;20222;-63
2021/12/02 10:26:03;;;;;;;2.87;2.50;;;;;;;6.10;62.42;97666.75;5088319;28;20827;-62
2021/12/02 10:28:35;;;;;;;2.60;2.50;;;;;;;6.11;63.05;97671.84;5095353;28;20237;-65
2021/12/02 10:31:04;;;;;;;2.50;2.30;;;;;;;5.83;64.45;97675.34;5089623;28;20219;-63
2021/12/02 10:33:35;;;;;;;3.10;2.80;;;;;;;5.75;64.47;97661.41;5106204;28;20218;-64
2021/12/02 10:36:09;;;;;;;3.43;2.53;;;;;;;5.55;66.35;97677.94;5108720;28;20232;-62
2021/12/02 10:38:38;;;;;;;5.33;4.00;;;;;;;5.76;64.89;97663.06;5103690;28;20227;-63
2021/12/02 10:41:18;;;;;;;3.87;2.80;;;;;;;5.58;64.53;97660.88;5109263;28;20439;-63
2021/12/02 10:44:24;;;;;;;3.63;3.33;;;;;;;6.08;63.91;97660.84;5096769;28;20608;-62
2021/12/02 10:46:57;;;;;;;2.70;2.50;;;;;;;6.07;63.46;97661.84;5081051;28;20217;-63
2021/12/02 10:49:35;;;;;;;5.83;3.50;;;;;;;6.28;63.24;97664.41;5097551;28;20225;-64
2021/12/02 10:52:04;;;;;;;32.20;25.10;;;;;;;6.21;64.43;97666.22;5101559;28;22104;-62
2021/12/02 10:54:35;;;;;;;11.17;8.00;;;;;;;6.46;64.14;97657.81;5109414;28;20236;-63
2021/12/02 10:57:07;;;;;;;5.90;5.03;;;;;;;6.67;63.21;97657.69;5096297;28;20231;-63
2021/12/02 10:59:43;;;;;;;7.50;5.57;;;;;;;6.32;64.46;97663.06;5100511;28;20231;-63
2021/12/02 11:04:05;;;;;;;4.13;3.60;;;;;;;4.12;71.66;97682.78;5066233;27;20327;-63
2021/12/02 11:06:55;;;;;;;3.47;3.17;;;;;;;4.10;71.63;97682.16;5093455;28;20275;-67
2021/12/02 11:09:43;;;;;;;4.00;3.60;;;;;;;3.95;73.00;97674.22;5054332;28;20324;-63
2021/12/02 11:12:16;;;;;;;4.63;3.90;;;;;;;3.49;73.51;97690.13;5084192;28;20238;-63
2021/12/02 11:14:53;;;;;;;4.10;3.70;;;;;;;3.99;72.52;97674.66;5047391;28;20228;-65
2021/12/02 11:17:21;;;;;;;4.60;3.27;;;;;;;4.29;70.61;97656.22;5073057;28;20246;-63
2021/12/02 11:19:50;;;;;;;5.63;4.50;;;;;;;4.33;70.72;97671.50;5059073;28;20229;-63
2021/12/02 11:22:21;;;;;;;7.37;4.10;;;;;;;3.76;71.72;97678.19;5012327;28;20235;-63
2021/12/02 11:24:50;;;;;;;6.53;4.00;;;;;;;4.01;71.67;97670.03;5047709;28;20223;-63
2021/12/02 11:27:19;;;;;;;5.13;4.63;;;;;;;4.22;69.91;97663.22;5045427;28;20217;-63
2021/12/02 11:30:00;;;;;;;7.17;4.37;;;;;;;4.30;70.42;97658.66;5042561;28;20601;-63
2021/12/02 11:32:32;;;;;;;5.20;4.67;;;;;;;4.26;70.01;97665.31;5041775;28;20234;-63
2021/12/02 11:35:15;;;;;;;5.10;3.77;;;;;;;4.33;68.72;97657.47;5044965;28;20223;-63
2021/12/02 11:37:45;;;;;;;5.23;3.87;;;;;;;4.13;69.95;97679.16;5040966;28;20304;-63
2021/12/02 11:40:17;;;;;;;5.63;3.23;;;;;;;3.88;70.26;97673.31;5040466;28;20228;-63
2021/12/02 11:42:45;;;;;;;6.83;4.33;;;;;;;4.22;68.61;97671.97;5044138;28;20270;-64
2021/12/02 11:45:16;;;;;;;6.20;3.83;;;;;;;4.08;68.76;97662.22;5044091;28;21077;-63
2021/12/02 11:47:43;;;;;;;5.80;4.07;;;;;;;4.85;67.81;97651.19;5042152;28;20649;-64
2021/12/02 11:50:13;;;;;;;9.47;5.03;;;;;;;4.53;68.53;97655.09;5042338;28;20224;-64
2021/12/02 11:52:42;;;;;;;6.93;4.90;;;;;;;4.43;68.96;97667.75;5047151;28;20227;-64
2021/12/02 11:55:27;;;;;;;6.43;4.50;;;;;;;4.75;68.30;97657.78;5057237;28;20234;-63
2021/12/02 11:57:54;;;;;;;5.70;4.77;;;;;;;5.09;67.12;97650.06;5060560;28;20231;-63
2021/12/02 12:00:23;;;;;;;6.70;4.47;;;;;;;4.37;70.62;97677.25;5063473;28;20219;-64
2021/12/02 12:03:20;;;;;;;7.70;5.00;;;;;;;4.76;68.71;97659.44;5063265;28;20230;-64
2021/12/02 12:06:00;;;;;;;7.70;5.00;;;;;;;5.77;66.66;97640.91;5050384;28;20749;-63
2021/12/02 12:08:36;;;;;;;8.43;5.40;;;;;;;5.92;65.59;97640.78;5045097;28;20818;-63
2021/12/02 12:11:22;;;;;;;8.67;6.13;;;;;;;5.96;65.52;97648.13;5056509;28;20323;-64
2021/12/02 12:13:51;;;;;;;7.70;6.33;;;;;;;6.15;64.75;97651.09;5048276;28;20511;-64
2021/12/02 12:16:23;;;;;;;5.07;4.20;;;;;;;5.65;66.44;97661.75;5048757;28;20223;-64
2021/12/02 12:18:50;;;;;;;3.17;2.90;;;;;;;5.47;63.45;97654.28;5018309;28;20232;-64
2021/12/02 12:21:17;;;;;;;3.13;2.60;;;;;;;4.60;67.60;97690.31;5044442;28;20231;-63
2021/12/02 12:23:59;;;;;;;5.33;3.40;;;;;;;6.05;62.43;97655.94;5034559;28;20220;-64
2021/12/02 12:26:31;;;;;;;3.60;3.30;;;;;;;5.73;62.39;97655.50;5030735;28;20727;-64
2021/12/02 12:29:07;;;;;;;6.40;3.43;;;;;;;5.94;62.64;97667.88;5029400;28;20221;-63
2021/12/02 12:31:53;;;;;;;3.30;3.00;;;;;;;5.00;64.46;97701.41;5029247;28;20238;-62
2021/12/02 12:34:30;;;;;;;3.03;2.40;;;;;;;3.42;66.39;97739.25;5030565;28;20229;-63
2021/12/02 12:36:59;;;;;;;2.90;2.60;;;;;;;2.66;68.83;97745.06;5032640;28;20224;-63
2021/12/02 12:39:33;;;;;;;2.60;2.30;;;;;;;2.86;68.93;97732.31;5026614;28;20234;-64
2021/12/02 12:42:15;;;;;;;2.63;2.40;;;;;;;3.35;67.22;97722.50;5049144;28;20284;-63
2021/12/02 12:44:52;;;;;;;2.80;2.57;;;;;;;3.24;66.26;97706.06;5050015;28;20227;-63
2021/12/02 12:47:39;;;;;;;2.57;2.37;;;;;;;3.50;65.51;97698.84;5048763;28;20249;-63
2021/12/02 12:50:30;;;;;;;7.10;4.93;;;;;;;3.56;65.99;97698.16;5039010;28;20628;-63
2021/12/02 12:53:15;;;;;;;5.50;4.17;;;;;;;3.72;65.63;97689.25;5040896;28;20261;-62